createdAt,value
2022-09-23T00:00:37.542Z,79.93
2022-09-23T00:03:04.477Z,80.21
2022-09-23T00:05:31.315Z,81.60
2022-09-23T00:07:58.322Z,82.42
2022-09-23T00:10:27.523Z,81.65
2022-09-23T00:12:54.938Z,82.05
2022-09-23T00:15:21.720Z,83.42
2022-09-23T00:17:48.192Z,82.07
2022-09-23T00:20:14.674Z,80.95
2022-09-23T00:22:41.142Z,80.49
2022-09-23T00:25:09.379Z,81.60
2022-09-23T00:27:38.075Z,81.70
2022-09-23T00:30:07.016Z,81.26
2022-09-23T00:32:34.192Z,81.55
2022-09-23T00:35:01.125Z,81.81
2022-09-23T00:37:31.168Z,82.09
2022-09-23T00:39:57.794Z,83.48
2022-09-23T00:42:24.646Z,84.43
2022-09-23T00:44:58.950Z,83.45
2022-09-23T00:47:47.453Z,82.75
2022-09-23T00:50:17.294Z,81.71
2022-09-23T00:52:44.171Z,82.12
2022-09-23T00:55:15.601Z,82.01
2022-09-23T00:57:44.511Z,82.09
2022-09-23T01:00:11.469Z,83.00
2022-09-23T01:02:38.216Z,83.73
2022-09-23T01:05:06.577Z,83.98
2022-09-23T01:07:33.643Z,84.68
2022-09-23T01:10:00.959Z,85.57
2022-09-23T01:12:44.883Z,85.84
2022-09-23T01:15:20.269Z,86.45
2022-09-23T01:18:09.791Z,86.11
2022-09-23T01:20:48.486Z,84.94
2022-09-23T01:23:37.957Z,83.91
2022-09-23T01:26:46.664Z,84.05
2022-09-23T01:29:25.263Z,84.37
2022-09-23T01:32:07.314Z,84.74
2022-09-23T01:34:37.594Z,85.16
2022-09-23T01:37:10.157Z,84.05
2022-09-23T01:39:42.140Z,83.94
2022-09-23T01:42:18.694Z,83.26
2022-09-23T01:45:01.946Z,83.11
2022-09-23T01:47:36.034Z,83.88
2022-09-23T01:50:05.680Z,84.66
2022-09-23T01:52:39.201Z,86.03
2022-09-23T01:55:10.928Z,86.03
2022-09-23T01:57:47.106Z,84.57
2022-09-23T02:00:18.551Z,84.47
2022-09-23T02:02:52.382Z,83.78
2022-09-23T02:05:22.240Z,83.41
2022-09-23T02:07:58.887Z,83.39
2022-09-23T02:10:36.221Z,84.18
2022-09-23T02:13:08.756Z,84.42
2022-09-23T02:15:38.433Z,85.43
2022-09-23T02:18:34.355Z,85.38
2022-09-23T02:21:05.596Z,85.65
2022-09-23T02:23:35.717Z,86.21
2022-09-23T02:26:05.140Z,85.79
2022-09-23T02:28:43.733Z,86.82
2022-09-23T02:31:16.473Z,87.75
2022-09-23T02:33:55.656Z,86.68
2022-09-23T02:36:29.598Z,88.19
2022-09-23T02:38:59.302Z,89.82
2022-09-23T02:41:55.692Z,88.63
2022-09-23T02:44:22.698Z,88.23
2022-09-23T02:46:49.459Z,88.62
2022-09-23T02:49:23.016Z,89.78
2022-09-23T02:51:49.813Z,90.04
2022-09-23T02:54:19.149Z,88.64
2022-09-23T02:56:48.254Z,87.90
2022-09-23T02:59:14.899Z,87.33
2022-09-23T03:01:44.393Z,86.83
2022-09-23T03:04:29.691Z,86.75
2022-09-23T03:07:06.364Z,88.11
2022-09-23T03:09:41.702Z,89.01
2022-09-23T03:12:39.248Z,92.00
2022-09-23T03:15:19.393Z,94.89
2022-09-23T03:18:01.686Z,95.28
2022-09-23T03:20:43.726Z,93.83
2022-09-23T03:23:12.468Z,91.22
2022-09-23T03:25:40.451Z,89.89
2022-09-23T03:28:07.390Z,89.56
2022-09-23T03:30:36.778Z,89.92
2022-09-23T03:33:08.505Z,90.11
2022-09-23T03:35:37.240Z,91.54
2022-09-23T03:38:10.067Z,92.22
2022-09-23T03:40:40.586Z,91.12
2022-09-23T03:43:07.209Z,90.84
2022-09-23T03:45:34.518Z,91.74
2022-09-23T03:48:03.782Z,90.41
2022-09-23T03:50:30.348Z,90.30
2022-09-23T03:52:56.745Z,89.26
2022-09-23T03:55:23.201Z,89.85
2022-09-23T03:57:49.644Z,90.40
2022-09-23T04:00:16.856Z,90.87
2022-09-23T04:02:43.638Z,92.82
2022-09-23T04:05:11.410Z,94.20
2022-09-23T04:07:37.859Z,93.04
2022-09-23T04:10:05.562Z,93.04
2022-09-23T04:12:51.667Z,93.11
2022-09-23T04:15:18.202Z,92.72
2022-09-23T04:17:44.667Z,93.02
2022-09-23T04:20:12.147Z,92.52
2022-09-23T04:22:38.623Z,91.97
2022-09-23T04:25:05.523Z,90.73
2022-09-23T04:27:36.858Z,91.98
2022-09-23T04:30:04.548Z,91.44
2022-09-23T04:32:31.007Z,91.88
2022-09-23T04:34:57.480Z,91.03
2022-09-23T04:37:23.973Z,90.51
2022-09-23T04:39:50.459Z,89.86
2022-09-23T04:42:17.013Z,90.76
2022-09-23T04:44:43.468Z,90.35
2022-09-23T04:47:11.332Z,90.09
2022-09-23T04:49:37.779Z,90.23
2022-09-23T04:52:04.450Z,89.26
2022-09-23T04:54:31.088Z,89.48
2022-09-23T04:56:57.759Z,90.36
2022-09-23T04:59:24.265Z,91.07
2022-09-23T05:01:50.786Z,91.47
2022-09-23T05:04:17.613Z,92.34
2022-09-23T05:06:44.092Z,94.03
2022-09-23T05:09:16.445Z,94.60
2022-09-23T05:11:43.340Z,95.48
2022-09-23T05:14:09.818Z,95.87
2022-09-23T05:16:36.435Z,96.47
2022-09-23T05:19:03.092Z,96.96
2022-09-23T05:21:29.621Z,96.40
2022-09-23T05:23:57.160Z,94.45
2022-09-23T05:26:25.011Z,92.29
2022-09-23T05:28:51.789Z,91.44
2022-09-23T05:31:20.848Z,91.96
2022-09-23T05:33:49.418Z,91.96
2022-09-23T05:36:15.955Z,92.30
2022-09-23T05:38:42.585Z,91.31
2022-09-23T05:41:11.772Z,91.71
2022-09-23T05:43:38.470Z,91.22
2022-09-23T05:46:11.054Z,90.79
2022-09-23T05:48:38.361Z,91.68
2022-09-23T05:51:06.395Z,90.71
2022-09-23T05:53:32.835Z,90.49
2022-09-23T05:55:59.320Z,89.64
2022-09-23T05:58:25.840Z,89.47
2022-09-23T06:00:52.289Z,88.46
2022-09-23T06:03:20.247Z,89.26
2022-09-23T06:05:47.306Z,89.64
2022-09-23T06:08:14.290Z,90.61
2022-09-23T06:10:43.028Z,91.04
2022-09-23T06:13:09.797Z,90.99
2022-09-23T06:15:36.576Z,89.42
2022-09-23T06:18:03.741Z,89.81
2022-09-23T06:20:30.207Z,90.13
2022-09-23T06:23:05.168Z,90.12
2022-09-23T06:25:34.003Z,90.49
2022-09-23T06:28:00.575Z,90.41
2022-09-23T06:30:27.312Z,88.95
2022-09-23T06:32:55.460Z,87.92
2022-09-23T06:35:27.562Z,87.20
2022-09-23T06:37:54.786Z,86.96
2022-09-23T06:40:22.123Z,85.88
2022-09-23T06:42:52.261Z,86.65
2022-09-23T06:45:18.915Z,85.83
2022-09-23T06:47:45.381Z,84.69
2022-09-23T06:50:12.004Z,84.11
2022-09-23T06:52:39.261Z,84.15
2022-09-23T06:55:06.560Z,82.77
2022-09-23T06:57:34.118Z,83.39
2022-09-23T07:00:00.701Z,82.96
2022-09-23T07:02:28.065Z,83.26
2022-09-23T07:04:54.723Z,82.16
2022-09-23T07:07:21.165Z,81.92
2022-09-23T07:09:47.708Z,81.60
2022-09-23T07:12:14.139Z,80.87
2022-09-23T07:14:40.613Z,78.51
2022-09-23T07:17:07.062Z,78.60
2022-09-23T07:19:33.523Z,76.95
2022-09-23T07:21:59.982Z,75.03
2022-09-23T07:24:26.465Z,75.79
2022-09-23T07:26:52.923Z,75.31
2022-09-23T07:29:19.442Z,73.56
2022-09-23T07:31:45.990Z,72.52
2022-09-23T07:34:12.655Z,71.33
2022-09-23T07:36:39.786Z,71.08
2022-09-23T07:39:08.439Z,71.21
2022-09-23T07:41:35.003Z,72.11
2022-09-23T07:44:01.723Z,70.16
2022-09-23T07:46:31.023Z,68.42
2022-09-23T07:48:58.152Z,67.94
2022-09-23T07:51:30.805Z,68.13
2022-09-23T07:53:59.909Z,67.84
2022-09-23T07:56:28.663Z,64.96
2022-09-23T07:58:55.485Z,66.17
2022-09-23T08:01:21.955Z,65.10
2022-09-23T08:03:48.462Z,63.23
2022-09-23T08:06:14.922Z,61.51
2022-09-23T08:08:41.534Z,61.05
2022-09-23T08:11:09.547Z,61.93
2022-09-23T08:13:36.263Z,59.96
2022-09-23T08:16:03.057Z,60.71
2022-09-23T08:18:29.658Z,60.19
2022-09-23T08:20:56.129Z,58.31
2022-09-23T08:23:22.583Z,58.46
2022-09-23T08:25:49.033Z,59.67
2022-09-23T08:28:16.339Z,59.58
2022-09-23T08:30:44.130Z,59.28
2022-09-23T08:33:14.229Z,58.36
2022-09-23T08:35:41.222Z,58.96
2022-09-23T08:38:07.943Z,59.65
2022-09-23T08:40:39.806Z,58.37
2022-09-23T08:43:07.727Z,56.83
2022-09-23T08:45:35.614Z,59.17
2022-09-23T08:48:10.765Z,58.53
2022-09-23T08:50:42.142Z,59.14
2022-09-23T08:53:23.908Z,60.44
2022-09-23T08:55:51.840Z,59.68
2022-09-23T08:58:36.987Z,58.93
2022-09-23T09:01:26.618Z,60.67
2022-09-23T09:03:58.431Z,61.56
2022-09-23T09:06:52.517Z,60.57
2022-09-23T09:09:19.787Z,60.87
2022-09-23T09:11:48.757Z,60.01
2022-09-23T09:14:23.668Z,58.45
2022-09-23T09:17:08.627Z,58.83
2022-09-23T09:19:55.844Z,58.73
2022-09-23T09:22:28.339Z,61.67
2022-09-23T09:25:01.484Z,59.89
2022-09-23T09:27:27.919Z,59.01
2022-09-23T09:29:54.552Z,57.87
2022-09-23T09:32:36.329Z,58.01
2022-09-23T09:35:11.242Z,58.11
2022-09-23T09:37:43.370Z,59.38
2022-09-23T09:40:14.067Z,58.96
2022-09-23T09:42:41.653Z,59.52
2022-09-23T09:45:21.395Z,57.87
2022-09-23T09:47:56.814Z,59.92
2022-09-23T09:50:55.657Z,59.20
2022-09-23T09:53:27.693Z,58.78
2022-09-23T09:56:10.042Z,56.92
2022-09-23T09:58:49.614Z,57.08
2022-09-23T10:01:24.390Z,57.64
2022-09-23T10:03:56.922Z,58.08
2022-09-23T10:06:30.790Z,57.50
2022-09-23T10:09:16.249Z,56.96
2022-09-23T10:12:02.102Z,57.27
2022-09-23T10:14:28.663Z,58.36
2022-09-23T10:17:03.420Z,58.59
2022-09-23T10:19:30.116Z,56.39
2022-09-23T10:21:58.735Z,55.94
2022-09-23T10:24:33.557Z,57.01
2022-09-23T10:27:03.588Z,56.85
2022-09-23T10:29:32.944Z,57.10
2022-09-23T10:32:20.691Z,56.41
2022-09-23T10:34:51.428Z,56.94
2022-09-23T10:37:40.321Z,56.17
2022-09-23T10:40:37.716Z,56.66
2022-09-23T10:43:07.922Z,57.51
2022-09-23T10:45:41.206Z,58.90
2022-09-23T10:48:21.325Z,57.51
2022-09-23T10:50:49.451Z,57.43
2022-09-23T10:53:42.239Z,57.78
2022-09-23T10:57:01.326Z,57.23
2022-09-23T10:59:49.601Z,56.85
2022-09-23T11:02:50.979Z,55.99
2022-09-23T11:05:54.519Z,55.00
2022-09-23T11:08:39.138Z,55.10
2022-09-23T11:11:17.632Z,57.17
2022-09-23T11:14:03.802Z,56.54
2022-09-23T11:16:55.423Z,56.30
2022-09-23T11:19:54.776Z,54.92
2022-09-23T11:22:30.245Z,55.55
2022-09-23T11:25:29.140Z,55.19
2022-09-23T11:28:14.409Z,54.92
2022-09-23T11:31:22.111Z,54.50
2022-09-23T11:33:59.707Z,54.99
2022-09-23T11:36:32.708Z,54.08
2022-09-23T11:39:01.450Z,54.68
2022-09-23T11:41:30.715Z,53.63
2022-09-23T11:44:12.484Z,54.75
2022-09-23T11:46:45.232Z,54.66
2022-09-23T11:49:15.570Z,54.35
2022-09-23T11:52:21.750Z,54.81
2022-09-23T11:55:15.965Z,53.97
2022-09-23T11:57:51.451Z,54.31
2022-09-23T12:00:25.414Z,53.25
2022-09-23T12:03:06.283Z,52.61
2022-09-23T12:05:38.294Z,53.19
2022-09-23T12:08:17.586Z,51.89
2022-09-23T12:10:43.994Z,52.13
2022-09-23T12:13:11.963Z,51.55
2022-09-23T12:16:00.583Z,52.23
2022-09-23T12:18:38.635Z,52.75
2022-09-23T12:21:33.070Z,52.47
2022-09-23T12:24:20.283Z,52.17
2022-09-23T12:26:51.086Z,52.53
2022-09-23T12:29:17.857Z,53.61
2022-09-23T12:31:46.755Z,52.08
2022-09-23T12:34:22.598Z,52.61
2022-09-23T12:36:50.351Z,50.92
2022-09-23T12:39:21.734Z,50.59
2022-09-23T12:41:49.521Z,50.85
2022-09-23T12:44:52.849Z,49.63
2022-09-23T12:47:19.389Z,49.34
2022-09-23T12:49:45.848Z,48.50
2022-09-23T12:52:18.363Z,48.42
2022-09-23T12:54:49.591Z,48.76
2022-09-23T12:57:40.821Z,48.50
2022-09-23T13:00:07.167Z,47.97
2022-09-23T13:02:36.506Z,46.90
2022-09-23T13:05:09.212Z,46.94
2022-09-23T13:07:42.603Z,46.19
2022-09-23T13:10:16.660Z,47.58
2022-09-23T13:12:43.707Z,49.23
2022-09-23T13:15:17.851Z,49.36
2022-09-23T13:17:44.370Z,48.93
2022-09-23T13:20:19.984Z,47.50
2022-09-23T13:22:49.229Z,48.38
2022-09-23T13:25:24.125Z,46.95
2022-09-23T13:27:54.094Z,47.39
2022-09-23T13:30:26.117Z,47.39
2022-09-23T13:33:11.058Z,47.77
2022-09-23T13:35:40.799Z,47.68
2022-09-23T13:38:11.840Z,48.37
2022-09-23T13:40:38.791Z,49.10
2022-09-23T13:43:09.242Z,47.62
2022-09-23T13:45:40.863Z,47.71
2022-09-23T13:48:12.179Z,46.53
2022-09-23T13:50:39.615Z,46.22
2022-09-23T13:53:09.065Z,46.43
2022-09-23T13:55:36.639Z,47.07
2022-09-23T13:58:04.672Z,47.39
2022-09-23T14:00:36.525Z,46.33
2022-09-23T14:03:16.178Z,46.85
2022-09-23T14:05:42.994Z,48.21
2022-09-23T14:08:09.561Z,48.70
2022-09-23T14:10:36.075Z,48.69
2022-09-23T14:13:02.560Z,48.67
2022-09-23T14:15:29.033Z,48.19
2022-09-23T14:18:03.090Z,48.61
2022-09-23T14:20:29.563Z,48.15
2022-09-23T14:23:07.071Z,47.83
2022-09-23T14:25:34.282Z,47.89
2022-09-23T14:28:01.052Z,47.29
2022-09-23T14:30:27.708Z,48.67
2022-09-23T14:32:54.173Z,48.69
2022-09-23T14:35:26.310Z,49.52
2022-09-23T14:37:58.376Z,49.16
2022-09-23T14:40:27.276Z,49.22
2022-09-23T14:43:06.764Z,49.38
2022-09-23T14:45:38.771Z,49.62
2022-09-23T14:48:17.143Z,49.90
2022-09-23T14:50:48.531Z,49.46
2022-09-23T14:53:17.951Z,48.93
2022-09-23T14:55:45.491Z,50.57
2022-09-23T14:58:16.417Z,48.57
2022-09-23T15:00:57.135Z,48.50
2022-09-23T15:03:23.821Z,49.26
2022-09-23T15:05:51.898Z,48.45
2022-09-23T15:08:23.277Z,48.38
2022-09-23T15:10:50.129Z,48.75
2022-09-23T15:13:27.496Z,49.59
2022-09-23T15:15:54.668Z,47.97
2022-09-23T15:18:23.296Z,48.44
2022-09-23T15:20:50.907Z,48.25
2022-09-23T15:23:34.124Z,49.33
2022-09-23T15:26:10.113Z,48.38
2022-09-23T15:28:36.600Z,48.66
2022-09-23T15:31:03.250Z,48.69
2022-09-23T15:33:29.703Z,48.48
2022-09-23T15:35:56.207Z,48.90
2022-09-23T15:38:22.834Z,50.36
2022-09-23T15:40:49.372Z,50.16
2022-09-23T15:43:20.763Z,50.70
2022-09-23T15:45:59.592Z,50.28
2022-09-23T15:48:29.254Z,50.10
2022-09-23T15:50:55.738Z,49.83
2022-09-23T15:53:25.122Z,50.35
2022-09-23T15:55:51.872Z,49.87
2022-09-23T15:58:22.553Z,50.12
2022-09-23T16:00:54.952Z,50.43
2022-09-23T16:03:24.666Z,50.87
2022-09-23T16:05:51.872Z,50.28
2022-09-23T16:08:18.344Z,49.86
2022-09-23T16:10:44.904Z,50.38
2022-09-23T16:13:13.635Z,50.34
2022-09-23T16:15:42.585Z,51.20
2022-09-23T16:18:10.832Z,53.09
2022-09-23T16:20:40.004Z,52.82
2022-09-23T16:23:18.170Z,52.35
2022-09-23T16:25:44.701Z,52.28
2022-09-23T16:28:11.160Z,52.59
2022-09-23T16:30:37.584Z,53.09
2022-09-23T16:33:04.057Z,53.05
2022-09-23T16:35:31.543Z,53.00
2022-09-23T16:37:58.051Z,53.64
2022-09-23T16:40:25.069Z,54.90
2022-09-23T16:42:52.689Z,55.13
2022-09-23T16:45:20.516Z,54.47
2022-09-23T16:47:48.108Z,55.19
2022-09-23T16:50:19.101Z,55.57
2022-09-23T16:52:45.604Z,56.00
2022-09-23T16:55:13.400Z,55.68
2022-09-23T16:57:40.666Z,56.99
2022-09-23T17:00:11.518Z,58.17
2022-09-23T17:02:38.063Z,58.19
2022-09-23T17:05:04.968Z,58.09
2022-09-23T17:07:31.464Z,58.63
2022-09-23T17:09:57.984Z,58.74
2022-09-23T17:12:30.441Z,58.88
2022-09-23T17:14:56.914Z,59.33
2022-09-23T17:17:23.498Z,59.75
2022-09-23T17:19:49.991Z,59.14
2022-09-23T17:22:16.467Z,60.38
2022-09-23T17:24:42.940Z,60.19
2022-09-23T17:27:09.833Z,60.26
2022-09-23T17:29:37.651Z,60.51
2022-09-23T17:32:04.217Z,60.56
2022-09-23T17:34:31.288Z,60.64
2022-09-23T17:36:57.747Z,61.89
2022-09-23T17:39:25.370Z,62.05
2022-09-23T17:41:51.831Z,63.16
2022-09-23T17:44:18.321Z,62.91
2022-09-23T17:46:44.790Z,62.99
2022-09-23T17:49:11.256Z,62.76
2022-09-23T17:51:37.721Z,64.49
2022-09-23T17:54:04.235Z,64.56
2022-09-23T17:56:30.680Z,65.23
2022-09-23T17:59:00.195Z,65.13
2022-09-23T18:01:26.879Z,65.62
2022-09-23T18:03:58.031Z,66.33
2022-09-23T18:06:27.134Z,66.22
2022-09-23T18:08:54.378Z,65.82
2022-09-23T18:11:24.586Z,65.09
2022-09-23T18:13:52.379Z,65.25
2022-09-23T18:16:19.806Z,65.11
2022-09-23T18:18:50.952Z,64.85
2022-09-23T18:21:17.389Z,64.67
2022-09-23T18:23:43.870Z,64.90
2022-09-23T18:26:18.738Z,65.18
2022-09-23T18:28:45.427Z,65.69
2022-09-23T18:31:12.017Z,65.23
2022-09-23T18:33:38.531Z,65.61
2022-09-23T18:36:05.454Z,65.33
2022-09-23T18:38:34.948Z,65.28
2022-09-23T18:41:01.863Z,65.89
2022-09-23T18:43:35.895Z,65.99
2022-09-23T18:46:09.298Z,66.30
2022-09-23T18:48:35.825Z,66.14
2022-09-23T18:51:02.373Z,65.55
2022-09-23T18:53:28.924Z,65.63
2022-09-23T18:55:55.412Z,65.59
2022-09-23T18:58:21.861Z,65.18
2022-09-23T19:00:48.908Z,64.46
2022-09-23T19:03:18.678Z,65.39
2022-09-23T19:05:46.291Z,65.41
2022-09-23T19:08:12.755Z,65.35
2022-09-23T19:10:39.225Z,64.97
2022-09-23T19:13:05.689Z,65.44
2022-09-23T19:15:32.825Z,65.86
2022-09-23T19:17:59.274Z,65.66
2022-09-23T19:20:25.731Z,65.73
2022-09-23T19:22:53.271Z,65.81
2022-09-23T19:25:19.750Z,66.35
2022-09-23T19:27:46.288Z,66.18
2022-09-23T19:30:12.746Z,66.39
2022-09-23T19:32:39.206Z,66.53
2022-09-23T19:35:05.922Z,66.70
2022-09-23T19:37:32.361Z,66.70
2022-09-23T19:39:58.807Z,67.32
2022-09-23T19:42:25.291Z,67.53
2022-09-23T19:44:51.738Z,66.96
2022-09-23T19:47:18.232Z,66.61
2022-09-23T19:49:45.465Z,66.89
2022-09-23T19:52:14.255Z,67.00
2022-09-23T19:54:40.721Z,67.23
2022-09-23T19:57:07.185Z,67.18
2022-09-23T19:59:33.616Z,67.02
2022-09-23T20:02:00.260Z,67.22
2022-09-23T20:04:27.446Z,67.93
2022-09-23T20:06:54.489Z,67.70
2022-09-23T20:09:21.198Z,68.11
2022-09-23T20:11:50.653Z,67.50
2022-09-23T20:14:17.114Z,66.00
2022-09-23T20:16:43.662Z,66.11
2022-09-23T20:19:10.235Z,65.22
2022-09-23T20:21:36.851Z,65.67
2022-09-23T20:24:03.631Z,65.94
2022-09-23T20:26:30.631Z,66.52
2022-09-23T20:28:57.172Z,67.08
2022-09-23T20:31:23.811Z,66.86
2022-09-23T20:33:54.684Z,66.81
2022-09-23T20:36:21.276Z,67.39
2022-09-23T20:38:47.694Z,66.92
2022-09-23T20:41:14.165Z,67.39
2022-09-23T20:43:41.029Z,66.92
2022-09-23T20:46:07.609Z,67.68
2022-09-23T20:48:34.653Z,68.19
2022-09-23T20:51:04.990Z,69.15
2022-09-23T20:53:31.732Z,69.00
2022-09-23T20:55:59.774Z,69.54
2022-09-23T20:58:30.574Z,69.38
2022-09-23T21:01:01.586Z,69.22
2022-09-23T21:03:30.264Z,69.31
2022-09-23T21:05:59.988Z,69.34
2022-09-23T21:08:27.643Z,68.61
2022-09-23T21:10:56.126Z,67.99
2022-09-23T21:13:22.902Z,67.19
2022-09-23T21:15:50.281Z,67.32
2022-09-23T21:18:21.725Z,67.11
2022-09-23T21:20:58.725Z,67.02
2022-09-23T21:23:30.461Z,66.92
2022-09-23T21:26:01.929Z,68.00
2022-09-23T21:28:33.018Z,67.66
2022-09-23T21:31:05.247Z,67.97
2022-09-23T21:33:32.220Z,69.35
2022-09-23T21:35:59.979Z,69.37
2022-09-23T21:38:26.456Z,69.13
2022-09-23T21:41:01.553Z,70.55
2022-09-23T21:43:32.433Z,70.51
2022-09-23T21:46:00.855Z,70.83
2022-09-23T21:48:28.915Z,71.54
2022-09-23T21:50:59.214Z,72.34
2022-09-23T21:53:26.888Z,72.36
2022-09-23T21:55:53.350Z,72.94
2022-09-23T21:58:19.784Z,72.73
2022-09-23T22:00:46.405Z,72.70
2022-09-23T22:03:13.125Z,72.80
2022-09-23T22:05:39.603Z,72.72
2022-09-23T22:08:06.052Z,73.00
2022-09-23T22:10:33.268Z,72.46
2022-09-23T22:12:59.927Z,71.57
2022-09-23T22:15:26.368Z,72.42
2022-09-23T22:17:52.821Z,72.32
2022-09-23T22:20:20.034Z,71.96
2022-09-23T22:22:46.646Z,71.90
2022-09-23T22:25:13.320Z,71.21
2022-09-23T22:27:39.808Z,71.56
2022-09-23T22:30:08.396Z,71.18
2022-09-23T22:32:34.942Z,70.45
2022-09-23T22:35:01.787Z,69.96
2022-09-23T22:37:30.474Z,69.95
2022-09-23T22:39:57.026Z,69.78
2022-09-23T22:42:23.566Z,70.45
2022-09-23T22:44:51.153Z,70.40
2022-09-23T22:47:18.571Z,70.20
2022-09-23T22:49:46.147Z,71.08
2022-09-23T22:52:13.190Z,71.05
2022-09-23T22:54:39.658Z,70.84
2022-09-23T22:57:07.803Z,70.12
2022-09-23T22:59:34.796Z,70.16
2022-09-23T23:02:02.302Z,69.42
2022-09-23T23:04:29.983Z,69.59
2022-09-23T23:06:57.180Z,69.24
2022-09-23T23:09:23.652Z,69.03
2022-09-23T23:11:50.122Z,70.43
2022-09-23T23:14:18.169Z,71.09
2022-09-23T23:16:45.462Z,71.25
2022-09-23T23:19:14.722Z,70.50
2022-09-23T23:21:41.530Z,70.73
2022-09-23T23:24:14.802Z,70.35
2022-09-23T23:26:41.933Z,69.99
2022-09-23T23:29:11.089Z,70.06
2022-09-23T23:31:37.926Z,70.12
2022-09-23T23:34:05.239Z,69.38
2022-09-23T23:36:31.736Z,69.15
2022-09-23T23:38:58.649Z,67.98
2022-09-23T23:41:25.138Z,68.82
2022-09-23T23:43:57.681Z,68.45
2022-09-23T23:46:25.609Z,68.17
2022-09-23T23:48:53.342Z,68.53
2022-09-23T23:51:20.360Z,68.47
2022-09-23T23:53:47.290Z,69.15
2022-09-23T23:56:18.982Z,69.53
2022-09-23T23:58:45.805Z,69.98
